sensor_id;sensor_type;location;lat;lon;timestamp;temperature;humidity
7708;DHT22;3896;48.758;8.888;2023-10-19T00:01:13;13.20;99.90
7708;DHT22;3896;48.758;8.888;2023-10-19T00:03:41;13.20;99.90
7708;DHT22;3896;48.758;8.888;2023-10-19T00:06:09;13.30;99.90
7708;DHT22;3896;48.758;8.888;2023-10-19T00:08:36;13.20;99.90
7708;DHT22;3896;48.758;8.888;2023-10-19T00:11:02;13.30;99.90
7708;DHT22;3896;48.758;8.888;2023-10-19T00:13:34;13.30;99.90
7708;DHT22;3896;48.758;8.888;2023-10-19T00:16:07;13.30;99.90
7708;DHT22;3896;48.758;8.888;2023-10-19T00:18:43;13.30;99.90
7708;DHT22;3896;48.758;8.888;2023-10-19T00:21:09;13.30;99.90
7708;DHT22;3896;48.758;8.888;2023-10-19T00:23:37;13.30;99.90
7708;DHT22;3896;48.758;8.888;2023-10-19T00:26:05;13.30;99.90
7708;DHT22;3896;48.758;8.888;2023-10-19T00:28:34;13.30;99.90
7708;DHT22;3896;48.758;8.888;2023-10-19T00:31:01;13.40;99.90
7708;DHT22;3896;48.758;8.888;2023-10-19T00:33:34;13.40;99.90
7708;DHT22;3896;48.758;8.888;2023-10-19T00:36:04;13.50;99.90
7708;DHT22;3896;48.758;8.888;2023-10-19T00:38:37;13.50;99.90
7708;DHT22;3896;48.758;8.888;2023-10-19T00:41:04;13.40;99.90
7708;DHT22;3896;48.758;8.888;2023-10-19T00:43:44;13.50;99.90
7708;DHT22;3896;48.758;8.888;2023-10-19T00:46:11;13.50;99.90
7708;DHT22;3896;48.758;8.888;2023-10-19T00:48:45;13.50;99.90
7708;DHT22;3896;48.758;8.888;2023-10-19T00:51:17;13.50;99.90
7708;DHT22;3896;48.758;8.888;2023-10-19T00:54:08;13.50;99.90
7708;DHT22;3896;48.758;8.888;2023-10-19T00:56:36;13.50;99.90
7708;DHT22;3896;48.758;8.888;2023-10-19T00:59:02;13.50;99.90
7708;DHT22;3896;48.758;8.888;2023-10-19T01:01:54;13.60;99.90
7708;DHT22;3896;48.758;8.888;2023-10-19T01:04:23;13.60;99.90
7708;DHT22;3896;48.758;8.888;2023-10-19T01:06:51;13.60;99.90
7708;DHT22;3896;48.758;8.888;2023-10-19T01:09:30;13.60;99.90
7708;DHT22;3896;48.758;8.888;2023-10-19T01:12:02;13.60;99.90
7708;DHT22;3896;48.758;8.888;2023-10-19T01:15:10;13.60;99.90
7708;DHT22;3896;48.758;8.888;2023-10-19T01:17:40;13.60;99.90
7708;DHT22;3896;48.758;8.888;2023-10-19T01:25:14;13.60;99.90
7708;DHT22;3896;48.758;8.888;2023-10-19T01:27:45;13.70;99.90
7708;DHT22;3896;48.758;8.888;2023-10-19T01:30:12;13.70;99.90
7708;DHT22;3896;48.758;8.888;2023-10-19T01:32:40;13.70;99.90
7708;DHT22;3896;48.758;8.888;2023-10-19T01:35:07;13.70;99.90
7708;DHT22;3896;48.758;8.888;2023-10-19T01:37:33;13.70;99.90
7708;DHT22;3896;48.758;8.888;2023-10-19T01:40:03;13.70;99.90
7708;DHT22;3896;48.758;8.888;2023-10-19T01:42:30;13.70;99.90
7708;DHT22;3896;48.758;8.888;2023-10-19T01:44:56;13.70;99.90
7708;DHT22;3896;48.758;8.888;2023-10-19T01:47:22;13.70;99.90
7708;DHT22;3896;48.758;8.888;2023-10-19T01:49:49;13.70;99.90
7708;DHT22;3896;48.758;8.888;2023-10-19T01:52:17;13.70;99.90
7708;DHT22;3896;48.758;8.888;2023-10-19T01:54:43;13.70;99.90
7708;DHT22;3896;48.758;8.888;2023-10-19T01:57:09;13.70;99.90
7708;DHT22;3896;48.758;8.888;2023-10-19T01:59:35;13.80;99.90
7708;DHT22;3896;48.758;8.888;2023-10-19T02:02:00;13.70;99.90
7708;DHT22;3896;48.758;8.888;2023-10-19T02:04:27;13.80;99.90
7708;DHT22;3896;48.758;8.888;2023-10-19T02:06:53;13.80;99.90
7708;DHT22;3896;48.758;8.888;2023-10-19T02:09:18;13.80;99.90
7708;DHT22;3896;48.758;8.888;2023-10-19T02:11:51;13.80;99.90
7708;DHT22;3896;48.758;8.888;2023-10-19T02:14:27;13.80;99.90
7708;DHT22;3896;48.758;8.888;2023-10-19T02:17:00;13.80;99.90
7708;DHT22;3896;48.758;8.888;2023-10-19T02:19:27;13.80;99.90
7708;DHT22;3896;48.758;8.888;2023-10-19T02:21:58;13.80;99.90
7708;DHT22;3896;48.758;8.888;2023-10-19T02:24:25;13.80;99.90
7708;DHT22;3896;48.758;8.888;2023-10-19T02:26:53;13.80;99.90
7708;DHT22;3896;48.758;8.888;2023-10-19T02:29:20;13.80;99.90
7708;DHT22;3896;48.758;8.888;2023-10-19T02:31:47;13.80;99.90
7708;DHT22;3896;48.758;8.888;2023-10-19T02:34:13;13.80;99.90
7708;DHT22;3896;48.758;8.888;2023-10-19T02:36:43;13.80;99.90
7708;DHT22;3896;48.758;8.888;2023-10-19T02:39:11;13.80;99.90
7708;DHT22;3896;48.758;8.888;2023-10-19T02:41:42;13.80;99.90
7708;DHT22;3896;48.758;8.888;2023-10-19T02:44:11;13.80;99.90
7708;DHT22;3896;48.758;8.888;2023-10-19T02:46:49;13.80;99.90
7708;DHT22;3896;48.758;8.888;2023-10-19T02:49:16;13.70;99.90
7708;DHT22;3896;48.758;8.888;2023-10-19T02:51:49;13.70;99.90
7708;DHT22;3896;48.758;8.888;2023-10-19T02:54:17;13.70;99.90
7708;DHT22;3896;48.758;8.888;2023-10-19T02:56:51;13.70;99.90
7708;DHT22;3896;48.758;8.888;2023-10-19T02:59:19;13.60;99.90
7708;DHT22;3896;48.758;8.888;2023-10-19T03:01:52;13.70;99.90
7708;DHT22;3896;48.758;8.888;2023-10-19T03:04:18;13.60;99.90
7708;DHT22;3896;48.758;8.888;2023-10-19T03:06:43;13.60;99.90
7708;DHT22;3896;48.758;8.888;2023-10-19T03:09:10;13.50;99.90
7708;DHT22;3896;48.758;8.888;2023-10-19T03:11:48;13.50;99.90
7708;DHT22;3896;48.758;8.888;2023-10-19T03:14:18;13.50;99.90
7708;DHT22;3896;48.758;8.888;2023-10-19T03:16:43;13.50;99.90
7708;DHT22;3896;48.758;8.888;2023-10-19T03:19:11;13.40;99.90
7708;DHT22;3896;48.758;8.888;2023-10-19T03:21:37;13.40;99.90
7708;DHT22;3896;48.758;8.888;2023-10-19T03:24:29;13.40;99.90
7708;DHT22;3896;48.758;8.888;2023-10-19T03:27:13;13.30;99.90
7708;DHT22;3896;48.758;8.888;2023-10-19T03:29:44;13.30;99.90
7708;DHT22;3896;48.758;8.888;2023-10-19T03:32:23;13.20;99.90
7708;DHT22;3896;48.758;8.888;2023-10-19T03:34:53;13.20;99.90
7708;DHT22;3896;48.758;8.888;2023-10-19T03:37:22;13.20;99.90
7708;DHT22;3896;48.758;8.888;2023-10-19T03:39:50;13.20;99.90
7708;DHT22;3896;48.758;8.888;2023-10-19T03:42:16;13.10;99.90
7708;DHT22;3896;48.758;8.888;2023-10-19T03:44:42;13.10;99.90
7708;DHT22;3896;48.758;8.888;2023-10-19T03:47:16;13.10;99.90
7708;DHT22;3896;48.758;8.888;2023-10-19T03:49:46;13.10;99.90
7708;DHT22;3896;48.758;8.888;2023-10-19T03:52:13;13.00;99.90
7708;DHT22;3896;48.758;8.888;2023-10-19T03:54:39;13.00;99.90
7708;DHT22;3896;48.758;8.888;2023-10-19T03:57:11;13.00;99.90
7708;DHT22;3896;48.758;8.888;2023-10-19T03:59:48;13.00;99.90
7708;DHT22;3896;48.758;8.888;2023-10-19T04:02:26;13.00;99.90
7708;DHT22;3896;48.758;8.888;2023-10-19T04:04:54;12.90;99.90
7708;DHT22;3896;48.758;8.888;2023-10-19T04:07:22;12.90;99.90
7708;DHT22;3896;48.758;8.888;2023-10-19T04:09:53;12.90;99.90
7708;DHT22;3896;48.758;8.888;2023-10-19T04:12:27;12.80;99.90
7708;DHT22;3896;48.758;8.888;2023-10-19T04:14:57;12.80;99.90
7708;DHT22;3896;48.758;8.888;2023-10-19T04:17:23;12.80;99.90
7708;DHT22;3896;48.758;8.888;2023-10-19T04:19:50;12.80;99.90
7708;DHT22;3896;48.758;8.888;2023-10-19T04:22:18;12.70;99.90
7708;DHT22;3896;48.758;8.888;2023-10-19T04:24:51;12.70;99.90
7708;DHT22;3896;48.758;8.888;2023-10-19T04:27:16;12.70;99.90
7708;DHT22;3896;48.758;8.888;2023-10-19T04:29:42;12.70;99.90
7708;DHT22;3896;48.758;8.888;2023-10-19T04:32:09;12.70;99.90
7708;DHT22;3896;48.758;8.888;2023-10-19T04:34:37;12.60;99.90
7708;DHT22;3896;48.758;8.888;2023-10-19T04:37:02;12.60;99.90
7708;DHT22;3896;48.758;8.888;2023-10-19T04:39:32;12.60;99.90
7708;DHT22;3896;48.758;8.888;2023-10-19T04:41:59;12.50;99.90
7708;DHT22;3896;48.758;8.888;2023-10-19T04:44:25;12.50;99.90
7708;DHT22;3896;48.758;8.888;2023-10-19T04:46:50;12.50;99.90
7708;DHT22;3896;48.758;8.888;2023-10-19T04:49:16;12.40;99.90
7708;DHT22;3896;48.758;8.888;2023-10-19T04:51:42;12.40;99.90
7708;DHT22;3896;48.758;8.888;2023-10-19T04:54:09;12.40;99.90
7708;DHT22;3896;48.758;8.888;2023-10-19T04:56:35;12.30;99.90
7708;DHT22;3896;48.758;8.888;2023-10-19T04:59:01;12.30;99.90
7708;DHT22;3896;48.758;8.888;2023-10-19T05:01:27;12.30;99.90
7708;DHT22;3896;48.758;8.888;2023-10-19T05:03:53;12.30;99.90
7708;DHT22;3896;48.758;8.888;2023-10-19T05:06:19;12.30;99.90
7708;DHT22;3896;48.758;8.888;2023-10-19T05:08:45;12.20;99.90
7708;DHT22;3896;48.758;8.888;2023-10-19T05:11:12;12.20;99.90
7708;DHT22;3896;48.758;8.888;2023-10-19T05:13:37;12.10;99.90
7708;DHT22;3896;48.758;8.888;2023-10-19T05:16:04;12.10;99.90
7708;DHT22;3896;48.758;8.888;2023-10-19T05:18:30;12.10;99.90
7708;DHT22;3896;48.758;8.888;2023-10-19T05:20:55;12.10;99.90
7708;DHT22;3896;48.758;8.888;2023-10-19T05:23:25;12.10;99.90
7708;DHT22;3896;48.758;8.888;2023-10-19T05:25:52;12.00;99.90
7708;DHT22;3896;48.758;8.888;2023-10-19T05:28:19;12.00;99.90
7708;DHT22;3896;48.758;8.888;2023-10-19T05:30:44;12.00;99.90
7708;DHT22;3896;48.758;8.888;2023-10-19T05:33:10;12.00;99.90
7708;DHT22;3896;48.758;8.888;2023-10-19T05:35:36;12.00;99.90
7708;DHT22;3896;48.758;8.888;2023-10-19T05:38:09;12.00;99.90
7708;DHT22;3896;48.758;8.888;2023-10-19T05:40:34;12.00;99.90
7708;DHT22;3896;48.758;8.888;2023-10-19T05:43:01;12.00;99.90
7708;DHT22;3896;48.758;8.888;2023-10-19T05:45:28;12.00;99.90
7708;DHT22;3896;48.758;8.888;2023-10-19T05:47:55;11.90;99.90
7708;DHT22;3896;48.758;8.888;2023-10-19T05:50:22;12.00;99.90
7708;DHT22;3896;48.758;8.888;2023-10-19T05:52:48;11.90;99.90
7708;DHT22;3896;48.758;8.888;2023-10-19T05:55:14;11.90;99.90
7708;DHT22;3896;48.758;8.888;2023-10-19T05:57:40;11.90;99.90
7708;DHT22;3896;48.758;8.888;2023-10-19T06:00:10;11.90;99.90
7708;DHT22;3896;48.758;8.888;2023-10-19T06:02:43;11.90;99.90
7708;DHT22;3896;48.758;8.888;2023-10-19T06:05:10;11.90;99.90
7708;DHT22;3896;48.758;8.888;2023-10-19T06:07:36;11.90;99.90
7708;DHT22;3896;48.758;8.888;2023-10-19T06:10:02;11.90;99.90
7708;DHT22;3896;48.758;8.888;2023-10-19T06:12:31;11.90;99.90
7708;DHT22;3896;48.758;8.888;2023-10-19T06:14:56;11.90;99.90
7708;DHT22;3896;48.758;8.888;2023-10-19T06:30:19;12.00;99.90
7708;DHT22;3896;48.758;8.888;2023-10-19T06:32:51;12.00;99.90
7708;DHT22;3896;48.758;8.888;2023-10-19T06:35:18;12.10;99.90
7708;DHT22;3896;48.758;8.888;2023-10-19T06:37:44;12.00;99.90
7708;DHT22;3896;48.758;8.888;2023-10-19T06:40:11;12.10;99.90
7708;DHT22;3896;48.758;8.888;2023-10-19T06:42:38;12.10;99.90
7708;DHT22;3896;48.758;8.888;2023-10-19T06:45:04;12.10;99.90
7708;DHT22;3896;48.758;8.888;2023-10-19T06:47:30;12.20;99.90
7708;DHT22;3896;48.758;8.888;2023-10-19T06:49:56;12.20;99.90
7708;DHT22;3896;48.758;8.888;2023-10-19T06:52:22;12.30;99.90
7708;DHT22;3896;48.758;8.888;2023-10-19T06:54:47;12.30;99.90
7708;DHT22;3896;48.758;8.888;2023-10-19T06:57:13;12.30;99.90
7708;DHT22;3896;48.758;8.888;2023-10-19T06:59:38;12.40;99.90
7708;DHT22;3896;48.758;8.888;2023-10-19T07:02:04;12.40;99.90
7708;DHT22;3896;48.758;8.888;2023-10-19T07:04:33;12.40;99.90
7708;DHT22;3896;48.758;8.888;2023-10-19T07:06:58;12.50;99.90
7708;DHT22;3896;48.758;8.888;2023-10-19T07:09:26;12.50;99.90
7708;DHT22;3896;48.758;8.888;2023-10-19T07:11:51;12.50;99.90
7708;DHT22;3896;48.758;8.888;2023-10-19T07:14:19;12.60;99.90
7708;DHT22;3896;48.758;8.888;2023-10-19T07:16:45;12.60;99.90
7708;DHT22;3896;48.758;8.888;2023-10-19T07:19:11;12.60;99.90
7708;DHT22;3896;48.758;8.888;2023-10-19T07:21:36;12.70;99.90
7708;DHT22;3896;48.758;8.888;2023-10-19T07:24:04;12.70;99.90
7708;DHT22;3896;48.758;8.888;2023-10-19T07:26:34;12.80;99.90
7708;DHT22;3896;48.758;8.888;2023-10-19T07:29:06;12.80;99.90
7708;DHT22;3896;48.758;8.888;2023-10-19T07:31:35;12.80;99.90
7708;DHT22;3896;48.758;8.888;2023-10-19T07:34:01;12.90;99.90
7708;DHT22;3896;48.758;8.888;2023-10-19T07:36:28;12.90;99.90
7708;DHT22;3896;48.758;8.888;2023-10-19T07:38:54;13.00;99.90
7708;DHT22;3896;48.758;8.888;2023-10-19T07:41:20;13.00;99.90
7708;DHT22;3896;48.758;8.888;2023-10-19T07:43:46;13.10;99.90
7708;DHT22;3896;48.758;8.888;2023-10-19T07:46:12;13.10;99.90
7708;DHT22;3896;48.758;8.888;2023-10-19T07:48:38;13.20;99.90
7708;DHT22;3896;48.758;8.888;2023-10-19T07:51:04;13.20;99.90
7708;DHT22;3896;48.758;8.888;2023-10-19T07:53:29;13.20;99.90
7708;DHT22;3896;48.758;8.888;2023-10-19T07:55:55;13.30;99.90
7708;DHT22;3896;48.758;8.888;2023-10-19T07:58:22;13.30;99.90
7708;DHT22;3896;48.758;8.888;2023-10-19T08:00:48;13.40;99.90
7708;DHT22;3896;48.758;8.888;2023-10-19T08:03:13;13.40;99.90
7708;DHT22;3896;48.758;8.888;2023-10-19T08:05:41;13.50;99.90
7708;DHT22;3896;48.758;8.888;2023-10-19T08:08:07;13.50;99.90
7708;DHT22;3896;48.758;8.888;2023-10-19T08:10:34;13.60;99.90
7708;DHT22;3896;48.758;8.888;2023-10-19T08:13:00;13.70;99.90
7708;DHT22;3896;48.758;8.888;2023-10-19T08:15:26;13.80;99.90
7708;DHT22;3896;48.758;8.888;2023-10-19T08:17:52;13.80;99.90
7708;DHT22;3896;48.758;8.888;2023-10-19T08:20:20;14.00;99.90
7708;DHT22;3896;48.758;8.888;2023-10-19T08:22:53;14.10;99.90
7708;DHT22;3896;48.758;8.888;2023-10-19T08:25:18;14.20;99.90
7708;DHT22;3896;48.758;8.888;2023-10-19T08:27:45;14.30;99.90
7708;DHT22;3896;48.758;8.888;2023-10-19T08:30:12;14.40;99.90
7708;DHT22;3896;48.758;8.888;2023-10-19T08:32:40;14.60;99.90
7708;DHT22;3896;48.758;8.888;2023-10-19T08:35:07;14.70;99.90
7708;DHT22;3896;48.758;8.888;2023-10-19T08:37:34;14.80;99.90
7708;DHT22;3896;48.758;8.888;2023-10-19T08:40:00;14.90;99.90
7708;DHT22;3896;48.758;8.888;2023-10-19T08:42:26;15.00;99.90
7708;DHT22;3896;48.758;8.888;2023-10-19T08:44:55;15.10;99.90
7708;DHT22;3896;48.758;8.888;2023-10-19T08:47:24;15.20;99.90
7708;DHT22;3896;48.758;8.888;2023-10-19T08:49:53;15.40;99.90
7708;DHT22;3896;48.758;8.888;2023-10-19T08:52:20;15.50;99.90
7708;DHT22;3896;48.758;8.888;2023-10-19T08:54:48;15.60;99.90
7708;DHT22;3896;48.758;8.888;2023-10-19T08:57:14;15.70;99.90
7708;DHT22;3896;48.758;8.888;2023-10-19T08:59:39;15.80;99.90
7708;DHT22;3896;48.758;8.888;2023-10-19T09:02:05;15.90;99.90
7708;DHT22;3896;48.758;8.888;2023-10-19T09:04:32;16.00;99.90
7708;DHT22;3896;48.758;8.888;2023-10-19T09:06:58;16.10;99.90
7708;DHT22;3896;48.758;8.888;2023-10-19T09:09:28;16.20;99.90
7708;DHT22;3896;48.758;8.888;2023-10-19T09:11:57;16.30;99.90
7708;DHT22;3896;48.758;8.888;2023-10-19T09:14:34;16.40;99.90
7708;DHT22;3896;48.758;8.888;2023-10-19T09:17:01;16.40;99.90
7708;DHT22;3896;48.758;8.888;2023-10-19T09:19:40;16.50;99.90
7708;DHT22;3896;48.758;8.888;2023-10-19T09:22:07;16.50;99.90
7708;DHT22;3896;48.758;8.888;2023-10-19T09:24:36;16.70;99.90
7708;DHT22;3896;48.758;8.888;2023-10-19T09:27:03;16.70;99.90
7708;DHT22;3896;48.758;8.888;2023-10-19T09:29:29;16.90;99.90
7708;DHT22;3896;48.758;8.888;2023-10-19T09:31:58;16.90;99.90
7708;DHT22;3896;48.758;8.888;2023-10-19T09:34:28;17.00;99.90
7708;DHT22;3896;48.758;8.888;2023-10-19T09:37:00;17.10;99.90
7708;DHT22;3896;48.758;8.888;2023-10-19T09:39:30;17.20;99.90
7708;DHT22;3896;48.758;8.888;2023-10-19T09:42:09;17.20;99.90
7708;DHT22;3896;48.758;8.888;2023-10-19T09:44:50;17.30;99.90
7708;DHT22;3896;48.758;8.888;2023-10-19T09:47:30;17.40;99.90
7708;DHT22;3896;48.758;8.888;2023-10-19T09:49:57;17.40;99.90
7708;DHT22;3896;48.758;8.888;2023-10-19T09:52:23;17.50;99.90
7708;DHT22;3896;48.758;8.888;2023-10-19T09:57:44;17.60;99.90
7708;DHT22;3896;48.758;8.888;2023-10-19T10:00:12;17.60;99.90
7708;DHT22;3896;48.758;8.888;2023-10-19T10:02:39;17.70;99.90
7708;DHT22;3896;48.758;8.888;2023-10-19T10:10:43;17.90;99.90
7708;DHT22;3896;48.758;8.888;2023-10-19T10:15:51;17.90;99.90
7708;DHT22;3896;48.758;8.888;2023-10-19T10:18:17;18.00;99.90
7708;DHT22;3896;48.758;8.888;2023-10-19T10:20:43;18.00;99.90
7708;DHT22;3896;48.758;8.888;2023-10-19T10:23:23;18.00;99.90
7708;DHT22;3896;48.758;8.888;2023-10-19T10:25:57;18.10;99.90
7708;DHT22;3896;48.758;8.888;2023-10-19T10:28:24;18.10;99.90
7708;DHT22;3896;48.758;8.888;2023-10-19T10:31:20;18.10;99.90
7708;DHT22;3896;48.758;8.888;2023-10-19T10:33:51;18.10;99.90
7708;DHT22;3896;48.758;8.888;2023-10-19T10:36:18;18.10;99.90
7708;DHT22;3896;48.758;8.888;2023-10-19T10:38:49;18.20;99.90
7708;DHT22;3896;48.758;8.888;2023-10-19T10:41:25;18.20;99.90
7708;DHT22;3896;48.758;8.888;2023-10-19T10:43:55;18.30;99.90
7708;DHT22;3896;48.758;8.888;2023-10-19T10:46:25;18.30;99.90
7708;DHT22;3896;48.758;8.888;2023-10-19T10:48:52;18.30;99.90
7708;DHT22;3896;48.758;8.888;2023-10-19T10:51:23;18.40;99.90
7708;DHT22;3896;48.758;8.888;2023-10-19T10:53:53;18.40;99.90
7708;DHT22;3896;48.758;8.888;2023-10-19T10:56:21;18.40;99.90
7708;DHT22;3896;48.758;8.888;2023-10-19T10:58:47;18.40;99.90
7708;DHT22;3896;48.758;8.888;2023-10-19T11:01:13;18.50;99.90
7708;DHT22;3896;48.758;8.888;2023-10-19T11:03:40;18.50;99.90
7708;DHT22;3896;48.758;8.888;2023-10-19T11:06:08;18.50;99.90
7708;DHT22;3896;48.758;8.888;2023-10-19T11:08:41;18.50;99.90
7708;DHT22;3896;48.758;8.888;2023-10-19T11:11:09;18.50;99.90
7708;DHT22;3896;48.758;8.888;2023-10-19T11:13:38;18.50;99.90
7708;DHT22;3896;48.758;8.888;2023-10-19T11:16:06;18.40;99.90
7708;DHT22;3896;48.758;8.888;2023-10-19T11:18:38;18.40;99.90
7708;DHT22;3896;48.758;8.888;2023-10-19T11:21:09;18.40;99.90
7708;DHT22;3896;48.758;8.888;2023-10-19T11:23:53;18.30;99.90
7708;DHT22;3896;48.758;8.888;2023-10-19T11:26:23;18.20;99.90
7708;DHT22;3896;48.758;8.888;2023-10-19T11:29:01;18.20;99.90
7708;DHT22;3896;48.758;8.888;2023-10-19T11:31:29;18.20;99.90
7708;DHT22;3896;48.758;8.888;2023-10-19T11:34:03;18.20;99.90
7708;DHT22;3896;48.758;8.888;2023-10-19T11:36:29;18.10;99.90
7708;DHT22;3896;48.758;8.888;2023-10-19T11:38:55;18.10;99.90
7708;DHT22;3896;48.758;8.888;2023-10-19T11:41:21;18.10;99.90
7708;DHT22;3896;48.758;8.888;2023-10-19T11:43:48;18.10;99.90
7708;DHT22;3896;48.758;8.888;2023-10-19T11:46:14;18.00;99.90
7708;DHT22;3896;48.758;8.888;2023-10-19T11:48:40;18.00;99.90
7708;DHT22;3896;48.758;8.888;2023-10-19T11:51:08;18.00;99.90
7708;DHT22;3896;48.758;8.888;2023-10-19T11:53:37;17.90;99.90
7708;DHT22;3896;48.758;8.888;2023-10-19T11:56:08;17.90;99.90
7708;DHT22;3896;48.758;8.888;2023-10-19T11:58:36;17.90;99.90
7708;DHT22;3896;48.758;8.888;2023-10-19T12:01:02;17.90;99.90
7708;DHT22;3896;48.758;8.888;2023-10-19T12:03:31;17.90;99.90
7708;DHT22;3896;48.758;8.888;2023-10-19T12:05:57;17.90;99.90
7708;DHT22;3896;48.758;8.888;2023-10-19T12:08:23;17.90;99.90
7708;DHT22;3896;48.758;8.888;2023-10-19T12:10:50;17.90;99.90
7708;DHT22;3896;48.758;8.888;2023-10-19T12:13:16;17.90;99.90
7708;DHT22;3896;48.758;8.888;2023-10-19T12:15:42;17.90;99.90
7708;DHT22;3896;48.758;8.888;2023-10-19T12:18:19;17.90;99.90
7708;DHT22;3896;48.758;8.888;2023-10-19T12:20:45;17.80;99.90
7708;DHT22;3896;48.758;8.888;2023-10-19T12:23:11;17.80;99.90
7708;DHT22;3896;48.758;8.888;2023-10-19T12:25:37;17.80;99.90
7708;DHT22;3896;48.758;8.888;2023-10-19T12:28:03;17.90;99.90
7708;DHT22;3896;48.758;8.888;2023-10-19T12:30:30;17.80;99.90
7708;DHT22;3896;48.758;8.888;2023-10-19T12:33:02;17.80;99.90
7708;DHT22;3896;48.758;8.888;2023-10-19T12:35:33;17.80;99.90
7708;DHT22;3896;48.758;8.888;2023-10-19T12:38:17;17.80;99.90
7708;DHT22;3896;48.758;8.888;2023-10-19T12:40:47;17.80;99.90
7708;DHT22;3896;48.758;8.888;2023-10-19T12:43:14;17.80;99.90
7708;DHT22;3896;48.758;8.888;2023-10-19T12:45:40;17.80;99.90
7708;DHT22;3896;48.758;8.888;2023-10-19T12:48:09;17.80;99.90
7708;DHT22;3896;48.758;8.888;2023-10-19T12:50:37;17.80;99.90
7708;DHT22;3896;48.758;8.888;2023-10-19T12:53:03;17.70;99.90
7708;DHT22;3896;48.758;8.888;2023-10-19T12:55:29;17.80;99.90
7708;DHT22;3896;48.758;8.888;2023-10-19T12:57:56;17.70;99.90
7708;DHT22;3896;48.758;8.888;2023-10-19T13:00:23;17.70;99.90
7708;DHT22;3896;48.758;8.888;2023-10-19T13:02:52;17.70;99.90
7708;DHT22;3896;48.758;8.888;2023-10-19T13:05:33;17.70;99.90
7708;DHT22;3896;48.758;8.888;2023-10-19T13:08:00;17.70;99.90
7708;DHT22;3896;48.758;8.888;2023-10-19T13:10:29;17.70;99.90
7708;DHT22;3896;48.758;8.888;2023-10-19T13:13:00;17.70;99.90
7708;DHT22;3896;48.758;8.888;2023-10-19T13:15:34;17.70;99.90
7708;DHT22;3896;48.758;8.888;2023-10-19T13:18:04;17.70;99.90
7708;DHT22;3896;48.758;8.888;2023-10-19T13:20:31;17.70;99.90
7708;DHT22;3896;48.758;8.888;2023-10-19T13:23:04;17.70;99.90
7708;DHT22;3896;48.758;8.888;2023-10-19T13:25:31;17.70;99.90
7708;DHT22;3896;48.758;8.888;2023-10-19T13:28:16;17.70;99.90
7708;DHT22;3896;48.758;8.888;2023-10-19T13:30:46;17.70;99.90
7708;DHT22;3896;48.758;8.888;2023-10-19T13:33:16;17.70;99.90
7708;DHT22;3896;48.758;8.888;2023-10-19T13:35:43;17.70;99.90
7708;DHT22;3896;48.758;8.888;2023-10-19T13:38:10;17.70;99.90
7708;DHT22;3896;48.758;8.888;2023-10-19T13:40:37;17.70;99.90
7708;DHT22;3896;48.758;8.888;2023-10-19T13:43:04;17.70;99.90
7708;DHT22;3896;48.758;8.888;2023-10-19T13:45:32;17.70;99.90
7708;DHT22;3896;48.758;8.888;2023-10-19T13:47:59;17.60;99.90
7708;DHT22;3896;48.758;8.888;2023-10-19T13:50:25;17.70;99.90
7708;DHT22;3896;48.758;8.888;2023-10-19T13:52:53;17.70;99.90
7708;DHT22;3896;48.758;8.888;2023-10-19T13:55:19;17.70;99.90
7708;DHT22;3896;48.758;8.888;2023-10-19T13:57:46;17.70;99.90
7708;DHT22;3896;48.758;8.888;2023-10-19T14:00:13;17.70;99.90
7708;DHT22;3896;48.758;8.888;2023-10-19T14:02:45;17.70;99.90
7708;DHT22;3896;48.758;8.888;2023-10-19T14:05:12;17.70;99.90
7708;DHT22;3896;48.758;8.888;2023-10-19T14:07:38;17.70;99.90
7708;DHT22;3896;48.758;8.888;2023-10-19T14:10:06;17.70;99.90
7708;DHT22;3896;48.758;8.888;2023-10-19T14:12:33;17.60;99.90
7708;DHT22;3896;48.758;8.888;2023-10-19T14:14:58;17.60;99.90
7708;DHT22;3896;48.758;8.888;2023-10-19T14:17:24;17.60;99.90
7708;DHT22;3896;48.758;8.888;2023-10-19T14:19:50;17.60;99.90
7708;DHT22;3896;48.758;8.888;2023-10-19T14:22:16;17.60;99.90
7708;DHT22;3896;48.758;8.888;2023-10-19T14:24:43;17.60;99.90
7708;DHT22;3896;48.758;8.888;2023-10-19T14:27:10;17.60;99.90
7708;DHT22;3896;48.758;8.888;2023-10-19T14:29:36;17.60;99.90
7708;DHT22;3896;48.758;8.888;2023-10-19T14:32:01;17.60;99.90
7708;DHT22;3896;48.758;8.888;2023-10-19T14:34:28;17.60;99.90
7708;DHT22;3896;48.758;8.888;2023-10-19T14:36:54;17.60;99.90
7708;DHT22;3896;48.758;8.888;2023-10-19T14:39:19;17.60;99.90
7708;DHT22;3896;48.758;8.888;2023-10-19T14:41:46;17.60;99.90
7708;DHT22;3896;48.758;8.888;2023-10-19T14:44:11;17.60;99.90
7708;DHT22;3896;48.758;8.888;2023-10-19T14:46:37;17.60;99.90
7708;DHT22;3896;48.758;8.888;2023-10-19T14:49:02;17.60;99.90
7708;DHT22;3896;48.758;8.888;2023-10-19T14:51:28;17.60;99.90
7708;DHT22;3896;48.758;8.888;2023-10-19T14:53:53;17.60;99.90
7708;DHT22;3896;48.758;8.888;2023-10-19T14:56:19;17.60;99.90
7708;DHT22;3896;48.758;8.888;2023-10-19T14:58:45;17.50;99.90
7708;DHT22;3896;48.758;8.888;2023-10-19T15:01:11;17.50;99.90
7708;DHT22;3896;48.758;8.888;2023-10-19T15:03:42;17.50;99.90
7708;DHT22;3896;48.758;8.888;2023-10-19T15:06:08;17.50;99.90
7708;DHT22;3896;48.758;8.888;2023-10-19T15:08:33;17.50;99.90
7708;DHT22;3896;48.758;8.888;2023-10-19T15:10:59;17.50;99.90
7708;DHT22;3896;48.758;8.888;2023-10-19T15:13:25;17.50;99.90
7708;DHT22;3896;48.758;8.888;2023-10-19T15:15:51;17.50;99.90
7708;DHT22;3896;48.758;8.888;2023-10-19T15:18:17;17.50;99.90
7708;DHT22;3896;48.758;8.888;2023-10-19T15:20:43;17.50;99.90
7708;DHT22;3896;48.758;8.888;2023-10-19T15:23:09;17.50;99.90
7708;DHT22;3896;48.758;8.888;2023-10-19T15:25:36;17.50;99.90
7708;DHT22;3896;48.758;8.888;2023-10-19T15:28:02;17.40;99.90
7708;DHT22;3896;48.758;8.888;2023-10-19T15:30:28;17.40;99.90
7708;DHT22;3896;48.758;8.888;2023-10-19T15:32:54;17.40;99.90
7708;DHT22;3896;48.758;8.888;2023-10-19T15:35:20;17.40;99.90
7708;DHT22;3896;48.758;8.888;2023-10-19T15:37:48;17.40;99.90
7708;DHT22;3896;48.758;8.888;2023-10-19T15:40:14;17.40;99.90
7708;DHT22;3896;48.758;8.888;2023-10-19T15:42:40;17.40;99.90
7708;DHT22;3896;48.758;8.888;2023-10-19T15:45:13;17.30;99.90
7708;DHT22;3896;48.758;8.888;2023-10-19T15:47:40;17.30;99.90
7708;DHT22;3896;48.758;8.888;2023-10-19T15:50:07;17.30;99.90
7708;DHT22;3896;48.758;8.888;2023-10-19T15:52:34;17.30;99.90
7708;DHT22;3896;48.758;8.888;2023-10-19T15:55:01;17.30;99.90
7708;DHT22;3896;48.758;8.888;2023-10-19T15:57:26;17.20;99.90
7708;DHT22;3896;48.758;8.888;2023-10-19T15:59:53;17.20;99.90
7708;DHT22;3896;48.758;8.888;2023-10-19T16:02:20;17.20;99.90
7708;DHT22;3896;48.758;8.888;2023-10-19T16:04:45;17.20;99.90
7708;DHT22;3896;48.758;8.888;2023-10-19T16:07:12;17.20;99.90
7708;DHT22;3896;48.758;8.888;2023-10-19T16:09:38;17.20;99.90
7708;DHT22;3896;48.758;8.888;2023-10-19T16:12:05;17.10;99.90
7708;DHT22;3896;48.758;8.888;2023-10-19T16:14:37;17.10;99.90
7708;DHT22;3896;48.758;8.888;2023-10-19T16:17:04;17.10;99.90
7708;DHT22;3896;48.758;8.888;2023-10-19T16:19:30;17.10;99.90
7708;DHT22;3896;48.758;8.888;2023-10-19T16:21:59;17.10;99.90
7708;DHT22;3896;48.758;8.888;2023-10-19T16:24:25;17.00;99.90
7708;DHT22;3896;48.758;8.888;2023-10-19T16:26:51;17.00;99.90
7708;DHT22;3896;48.758;8.888;2023-10-19T16:29:17;17.00;99.90
7708;DHT22;3896;48.758;8.888;2023-10-19T16:31:44;17.00;99.90
7708;DHT22;3896;48.758;8.888;2023-10-19T16:34:15;17.00;99.90
7708;DHT22;3896;48.758;8.888;2023-10-19T16:36:42;16.90;99.90
7708;DHT22;3896;48.758;8.888;2023-10-19T16:39:08;16.90;99.90